Gunter Afs, AL (36114)

23:47 CDT le 23 août 2016 (GMT -0500)
Forest Hills | | Change Station

Alt. 223 ft 32.38 °N, 86.26 °W | Updated 4 seconds ago

Mostly Cloudy
Nuageux
81.8 ° F
Paraît 88 ° F
N
0.0
Vent Variable Vent de SO
Gusts 2.0 mph

Aujourd'hui
Haut(e) -- | Bas -- ° F
--% Risque de précip.
Hier
Haut(e) -- | Bas -- ° F
Precip. -- pouce
Pression 30.17 pouce
Visibilité 10.0 Miles terrestres
Nuages Peu 6000 ft
Nuageux 20000 ft
indice de chaleur 88 ° F
Point de rosée 75 ° F
Humidité 79%
Précipitations 0.00 pouce
Profondeur de la couche neigeuse Non disponible.
6:14 AM 7:19 PM
Lune gibbeuse décroissante, 61% visible
METAR KMXF 240358Z AUTO 13008KT 10SM FEW060 BKN200 28/24 A3017 RMK AO2 SLPNO T02820241
Pression 30.17 pouce
Visibilité 10.0 Miles terrestres
Nuages Peu 6000 ft
Nuageux 20000 ft
indice de chaleur 88 ° F
Point de rosée 75 ° F
Humidité 79%
Précipitations 0.00 pouce
Profondeur de la couche neigeuse Non disponible.
6:14 AM 7:19 PM
Lune gibbeuse décroissante, 61% visible
METAR KMXF 240358Z AUTO 13008KT 10SM FEW060 BKN200 28/24 A3017 RMK AO2 SLPNO T02820241

10-Day Weather Forecast

Almanac

Astronomie

Aug. 23, 2016 Lever Coucher
Temps réel
Crépuscule civil
Crépuscule nautique
Crépuscule astronomique
Lune
Durée de lumière visible
Longueur du jour
Tomorrow will be .
, % of the Moon is Illuminated

Extrêmes aujourd'hui

State Highs State Lows

Community

WunderPhotos

Upload Photos

1,934,554 Photos téléchargées !

WunderBlog® & News

Nearby

Qualité de l'air

  Qualité de l'air Indice de la qualité de l'air Polluant
Not available.

Épaisseur de neige

Station Depth Altitude

Activité sismique

Ville Distance Mag. Time & Date
Minimum magnitude displayed is 2.5.

Températures des eaux côtières

Lieu Température

Stations

Stations météo à proximité

Emplacement de la station Température Refroidissement éolien Point de rosée Humidité Vent Precip. Alt. Mise à jour Type
                   

Watches & Warnings

There are currently no watches in effect.